Time;durP1;ratioP1;P1;durP2;ratioP2;P2;SDS_P1;SDS_P2;PMS_P1;PMS_P2;Temp;Humidity;BMP_temperature;BMP_pressure;BME280_temperature;BME280_humidity;BME280_pressure;Samples;Min_cycle;Max_cycle;Signal;HPM_P1;HPM_P2
2022/10/15 00:00:49;;;;;;;;;8.33;6.00;;;;;16.83;78.01;100212.16;5058644;28;45493;-58
2022/10/15 00:03:15;;;;;;;;;9.00;9.00;;;;;16.78;78.58;100207.16;5055029;28;46199;-57
2022/10/15 00:05:41;;;;;;;;;6.33;6.33;;;;;16.81;78.85;100218.53;5057994;28;45501;-58
2022/10/15 00:08:08;;;;;;;;;8.67;7.33;;;;;16.78;78.81;100209.81;5058168;28;45324;-58
2022/10/15 00:10:34;;;;;;;;;5.33;5.00;;;;;16.83;78.72;100213.97;5057877;28;45443;-58
2022/10/15 00:13:00;;;;;;;;;7.00;7.00;;;;;16.82;78.83;100210.47;5058085;28;45402;-58
2022/10/15 00:15:26;;;;;;;;;12.00;9.33;;;;;16.82;78.99;100205.16;5057715;28;45386;-57
2022/10/15 00:17:51;;;;;;;;;9.00;9.00;;;;;16.85;78.81;100209.41;5053817;28;45336;-58
2022/10/15 00:20:17;;;;;;;;;7.67;7.67;;;;;16.83;79.01;100208.66;5055293;28;45524;-58
2022/10/15 00:22:42;;;;;;;;;11.67;9.00;;;;;16.84;79.08;100210.34;5069580;28;46060;-57
2022/10/15 00:25:08;;;;;;;;;9.33;8.67;;;;;16.83;79.45;100206.84;5077860;28;45454;-58
2022/10/15 00:27:34;;;;;;;;;9.00;8.00;;;;;16.83;79.53;100204.19;5078072;28;45453;-58
2022/10/15 00:30:02;;;;;;;;;9.67;8.33;;;;;16.81;79.35;100203.44;5078050;28;45578;-58
2022/10/15 00:32:27;;;;;;;;;6.67;6.67;;;;;16.79;79.47;100197.38;5063801;28;46172;-58
2022/10/15 00:34:53;;;;;;;;;7.00;7.00;;;;;16.82;79.31;100201.63;5057704;28;45514;-58
2022/10/15 00:37:19;;;;;;;;;7.67;7.67;;;;;16.81;79.73;100195.47;5039339;28;45543;-58
2022/10/15 00:39:45;;;;;;;;;7.00;7.00;;;;;16.80;79.42;100183.16;5057807;28;45566;-58
2022/10/15 00:42:10;;;;;;;;;8.67;7.67;;;;;16.82;79.20;100191.00;5057400;28;45450;-57
2022/10/15 00:44:36;;;;;;;;;7.00;7.00;;;;;16.81;79.59;100192.81;5057617;28;45432;-58
2022/10/15 00:47:15;;;;;;;;;6.67;6.67;;;;;16.78;79.38;100185.06;5062765;28;45426;-58
2022/10/15 00:50:00;;;;;;;;;7.33;7.33;;;;;16.78;79.45;100191.22;5077778;28;45485;-57
2022/10/15 00:52:30;;;;;;;;;8.00;8.00;;;;;16.81;79.60;100191.97;5063861;28;46208;-58
2022/10/15 00:55:05;;;;;;;;;8.00;7.00;;;;;16.76;79.43;100186.91;5057246;28;45503;-58
2022/10/15 00:57:32;;;;;;;;;6.67;6.67;;;;;16.76;79.61;100189.56;5057357;28;45342;-58
2022/10/15 01:00:01;;;;;;;;;7.33;7.00;;;;;16.74;79.58;100195.00;5057871;28;45396;-58
2022/10/15 01:02:27;;;;;;;;;5.00;5.00;;;;;16.73;79.89;100187.13;5058875;28;45557;-58
2022/10/15 01:04:54;;;;;;;;;5.00;4.33;;;;;16.76;79.81;100181.63;5077447;28;45615;-58
2022/10/15 01:07:19;;;;;;;;;5.00;5.00;;;;;16.73;79.76;100174.69;5077565;28;45466;-57
2022/10/15 01:09:45;;;;;;;;;5.33;5.33;;;;;16.71;79.85;100181.06;5077517;28;45625;-58
2022/10/15 01:12:23;;;;;;;;;5.33;5.33;;;;;16.70;80.19;100177.56;5058394;28;45797;-58
2022/10/15 01:15:17;;;;;;;;;5.00;5.00;;;;;16.71;80.18;100168.66;5076081;28;45489;-58
2022/10/15 01:17:52;;;;;;;;;5.00;5.00;;;;;16.72;80.20;100154.44;5057886;28;45471;-58
2022/10/15 01:20:47;;;;;;;;;5.00;5.00;;;;;16.69;80.15;100149.31;5056936;28;45542;-57
2022/10/15 01:23:43;;;;;;;;;5.67;5.67;;;;;16.69;79.98;100145.81;5040644;28;46230;-57
2022/10/15 01:26:29;;;;;;;;;6.33;5.00;;;;;16.67;80.52;100147.72;5036650;28;45597;-58
2022/10/15 01:29:22;;;;;;;;;5.00;5.00;;;;;16.67;79.88;100135.28;5036793;28;45512;-58
2022/10/15 01:32:18;;;;;;;;;3.00;3.00;;;;;16.65;80.32;100131.88;5042363;28;45418;-58
2022/10/15 01:34:51;;;;;;;;;5.00;5.00;;;;;16.67;80.25;100134.44;5056773;28;46199;-57
2022/10/15 01:37:38;;;;;;;;;6.00;6.00;;;;;16.64;80.57;100122.22;5056678;28;45476;-58
2022/10/15 01:40:09;;;;;;;;;4.00;4.00;;;;;16.64;79.91;100124.03;5056792;28;45510;-58
2022/10/15 01:42:59;;;;;;;;;4.67;4.67;;;;;16.62;80.32;100113.50;5055027;28;45448;-58
2022/10/15 01:45:48;;;;;;;;;6.00;4.00;;;;;16.61;80.59;100108.31;5056530;28;46170;-58
2022/10/15 01:48:15;;;;;;;;;3.67;2.67;;;;;16.62;80.28;100110.00;5056581;28;45379;-58
2022/10/15 01:50:54;;;;;;;;;5.00;5.00;;;;;16.61;80.49;100105.69;5038437;28;45404;-58
2022/10/15 01:53:25;;;;;;;;;4.67;3.67;;;;;16.61;80.14;100101.22;5056460;28;45546;-58
2022/10/15 01:55:54;;;;;;;;;5.00;5.00;;;;;16.55;80.69;100106.94;5038154;28;47371;-58
2022/10/15 01:58:22;;;;;;;;;5.33;5.33;;;;;16.55;80.41;100099.81;5046482;28;45561;-58
2022/10/15 02:00:51;;;;;;;;;4.00;4.00;;;;;16.57;80.82;100091.75;5037023;28;45428;-58
2022/10/15 02:03:17;;;;;;;;;5.67;4.00;;;;;16.56;81.19;100085.59;5036338;28;45376;-63
2022/10/15 02:05:55;;;;;;;;;7.00;7.00;;;;;16.55;80.77;100080.41;5035961;28;46970;-57
2022/10/15 02:08:37;;;;;;;;;3.33;3.33;;;;;16.57;81.08;100086.44;5018067;28;45422;-57
2022/10/15 02:11:18;;;;;;;;;5.00;4.00;;;;;16.51;81.10;100065.63;5036245;28;45380;-57
2022/10/15 02:14:10;;;;;;;;;6.33;6.33;;;;;16.52;80.86;100062.88;5045695;28;45485;-58
2022/10/15 02:17:01;;;;;;;;;7.00;7.00;;;;;16.51;81.26;100058.50;5011035;28;46206;-58
2022/10/15 02:19:39;;;;;;;;;5.33;4.00;;;;;16.52;81.16;100054.91;5035748;28;45433;-57
2022/10/15 02:22:16;;;;;;;;;4.00;4.00;;;;;16.54;81.04;100050.31;5042290;28;45515;-58
2022/10/15 02:25:07;;;;;;;;;4.00;4.00;;;;;16.54;81.22;100047.66;5037235;28;45533;-57
2022/10/15 02:27:35;;;;;;;;;5.00;5.00;;;;;16.54;81.12;100036.19;5044911;28;45470;-58
2022/10/15 02:30:03;;;;;;;;;5.33;5.00;;;;;16.52;81.36;100016.88;5055578;28;45463;-58
2022/10/15 02:32:31;;;;;;;;;5.00;5.00;;;;;16.51;81.30;100018.69;5055976;28;45454;-58
2022/10/15 02:34:58;;;;;;;;;5.00;5.00;;;;;16.52;81.51;100019.53;5037799;28;45538;-56
2022/10/15 02:37:26;;;;;;;;;4.33;4.00;;;;;16.52;81.43;100012.44;5055500;28;45491;-57
2022/10/15 02:39:52;;;;;;;;;3.67;3.67;;;;;16.54;81.47;100004.34;5055705;28;45412;-58
2022/10/15 02:42:18;;;;;;;;;5.33;5.33;;;;;16.51;81.66;99993.94;5055862;28;45407;-58
2022/10/15 02:44:44;;;;;;;;;5.00;5.00;;;;;16.54;81.87;99980.44;5058193;28;45439;-58
2022/10/15 02:47:10;;;;;;;;;4.33;4.33;;;;;16.53;81.84;99979.63;5057832;28;45413;-58
2022/10/15 02:49:35;;;;;;;;;3.00;3.00;;;;;16.53;81.70;99976.13;5041339;28;45422;-58
2022/10/15 02:52:01;;;;;;;;;4.00;4.00;;;;;16.54;81.20;99991.06;5059341;28;45356;-57
2022/10/15 02:54:26;;;;;;;;;3.00;3.00;;;;;16.54;81.64;99989.25;5059145;28;45363;-56
2022/10/15 02:56:51;;;;;;;;;5.00;5.00;;;;;16.57;81.66;99985.53;5058687;28;45434;-57
2022/10/15 02:59:18;;;;;;;;;3.00;3.00;;;;;16.57;81.66;99981.06;5058108;28;57551;-58
2022/10/15 03:01:44;;;;;;;;;2.67;2.67;;;;;16.57;81.30;99972.28;5059286;28;45478;-58
2022/10/15 03:04:09;;;;;;;;;2.67;1.00;;;;;16.59;81.36;99969.53;5059083;28;45471;-58
2022/10/15 03:06:34;;;;;;;;;3.00;3.00;;;;;16.57;81.63;99972.28;5059056;28;46331;-58
2022/10/15 03:09:00;;;;;;;;;3.00;3.00;;;;;16.59;81.72;99965.06;5058951;28;45447;-57
2022/10/15 03:11:25;;;;;;;;;2.00;2.00;;;;;16.57;81.50;99959.84;5059153;28;45466;-58
2022/10/15 03:13:50;;;;;;;;;2.00;2.00;;;;;16.58;81.58;99958.06;5051128;28;45454;-58
2022/10/15 03:16:16;;;;;;;;;1.00;1.00;;;;;16.58;81.73;99947.44;5058847;28;46025;-58
2022/10/15 03:18:41;;;;;;;;;1.00;1.00;;;;;16.59;82.30;99948.28;5039561;28;45579;-58
2022/10/15 03:21:06;;;;;;;;;1.00;1.00;;;;;16.58;82.44;99944.78;5058734;28;47619;-58
2022/10/15 03:23:32;;;;;;;;;2.67;1.67;;;;;16.59;82.57;99933.19;5077389;28;45580;-58
2022/10/15 03:25:57;;;;;;;;;1.00;1.00;;;;;16.60;82.64;99942.84;5078809;28;46040;-58
2022/10/15 03:28:22;;;;;;;;;0.50;0.50;;;;;16.62;81.49;99929.47;5078309;28;45459;-58
2022/10/15 03:30:48;;;;;;;;;0.00;0.00;;;;;16.63;82.45;99928.50;5078985;28;45469;-56
2022/10/15 03:33:13;;;;;;;;;0.25;0.25;;;;;16.63;82.45;99937.34;5078693;28;45379;-57
2022/10/15 03:35:39;;;;;;;;;0.75;0.75;;;;;16.60;82.56;99923.41;5075460;28;46041;-57
2022/10/15 03:38:06;;;;;;;;;0.25;0.25;;;;;16.62;82.12;99927.66;5058350;28;45384;-58
2022/10/15 03:40:31;;;;;;;;;1.00;0.75;;;;;16.63;82.39;99915.22;5058568;28;45481;-58
2022/10/15 03:42:56;;;;;;;;;1.00;1.00;;;;;16.63;82.76;99913.44;5055690;28;45501;-57
2022/10/15 03:45:23;;;;;;;;;1.00;1.00;;;;;16.63;83.03;99908.13;5058588;28;56219;-58
2022/10/15 03:47:49;;;;;;;;;0.33;0.00;;;;;16.63;82.71;99908.13;5078658;28;45462;-57
2022/10/15 03:50:15;;;;;;;;;0.00;0.00;;;;;16.65;82.51;99911.50;5078054;28;45528;-58
2022/10/15 03:52:40;;;;;;;;;1.00;0.67;;;;;16.60;82.69;99894.22;5078783;28;45561;-58
2022/10/15 03:55:07;;;;;;;;;0.00;0.00;;;;;16.64;82.44;99901.88;5078168;28;45433;-57
2022/10/15 03:57:32;;;;;;;;;0.00;0.00;;;;;16.65;82.73;99898.22;5077133;28;45522;-58
2022/10/15 03:59:58;;;;;;;;;0.00;0.00;;;;;16.67;82.46;99892.81;5058811;28;45378;-58
2022/10/15 04:02:24;;;;;;;;;0.50;0.00;;;;;16.66;82.23;99891.16;5058214;28;45582;-58
2022/10/15 04:04:53;;;;;;;;;1.00;1.00;;;;;16.67;82.44;99892.81;5058136;28;45493;-57
2022/10/15 04:07:20;;;;;;;;;0.67;0.67;;;;;16.67;82.68;99888.38;5058114;28;45480;-58
2022/10/15 04:09:46;;;;;;;;;0.00;0.00;;;;;16.67;82.55;99871.59;5058141;28;45539;-57
2022/10/15 04:12:12;;;;;;;;;0.67;0.67;;;;;16.70;82.48;99876.66;5057617;28;45426;-56
2022/10/15 04:14:37;;;;;;;;;2.00;1.00;;;;;16.67;81.66;99875.09;5056744;28;45742;-57
2022/10/15 04:17:02;;;;;;;;;0.00;0.00;;;;;16.68;82.72;99875.94;5058029;28;45334;-57
2022/10/15 04:19:28;;;;;;;;;1.67;0.00;;;;;16.66;83.40;99878.72;5058056;28;45460;-57
2022/10/15 04:21:53;;;;;;;;;0.00;0.00;;;;;16.69;82.64;99869.69;5052952;28;45612;-57
2022/10/15 04:24:18;;;;;;;;;1.00;1.00;;;;;16.69;83.31;99870.53;5037739;28;46155;-57
2022/10/15 04:26:44;;;;;;;;;0.00;0.00;;;;;16.70;83.22;99872.19;5037674;28;45419;-58
2022/10/15 04:29:09;;;;;;;;;1.00;1.00;;;;;16.70;83.45;99866.06;5055856;28;45512;-57
2022/10/15 04:31:36;;;;;;;;;0.00;0.00;;;;;16.70;83.16;99866.91;5057808;28;45610;-59
2022/10/15 04:34:02;;;;;;;;;0.00;0.00;;;;;16.71;83.14;99865.06;5057463;28;45400;-58
2022/10/15 04:36:27;;;;;;;;;2.00;2.00;;;;;16.74;83.06;99871.03;5042621;28;45444;-58
2022/10/15 04:38:53;;;;;;;;;2.00;1.00;;;;;16.73;83.39;99871.13;5037277;28;45341;-58
2022/10/15 04:41:18;;;;;;;;;1.00;1.00;;;;;16.75;83.21;99863.91;5047944;28;45559;-58
2022/10/15 04:43:43;;;;;;;;;1.67;1.67;;;;;16.74;83.04;99856.91;5057389;28;45506;-58
2022/10/15 04:46:09;;;;;;;;;0.00;0.00;;;;;16.76;83.74;99865.59;5057416;28;45522;-58
2022/10/15 04:48:36;;;;;;;;;1.00;1.00;;;;;16.75;83.87;99871.88;5057561;28;45514;-58
2022/10/15 04:51:10;;;;;;;;;1.00;1.00;;;;;16.76;83.83;99873.56;5057510;28;45521;-58
2022/10/15 04:53:35;;;;;;;;;1.00;1.00;;;;;16.76;83.62;99868.25;5057298;28;45462;-57
2022/10/15 04:56:07;;;;;;;;;4.33;1.33;;;;;16.77;83.55;99865.53;5027331;28;45409;-58
2022/10/15 04:58:34;;;;;;;;;0.00;0.00;;;;;16.81;83.71;99878.59;5037105;28;45293;-58
2022/10/15 05:01:04;;;;;;;;;0.75;0.75;;;;;16.83;83.88;99881.97;5037840;28;45418;-57
2022/10/15 05:03:31;;;;;;;;;3.00;1.00;;;;;16.84;83.51;99881.84;5037031;28;46042;-58
2022/10/15 05:06:19;;;;;;;;;1.00;1.00;;;;;16.82;83.86;99883.78;5036399;28;45401;-57
2022/10/15 05:08:46;;;;;;;;;0.67;0.00;;;;;16.81;83.58;99887.38;5037304;28;45439;-58
2022/10/15 05:11:15;;;;;;;;;1.00;1.00;;;;;16.84;83.90;99889.81;5046347;28;45426;-57
2022/10/15 05:13:41;;;;;;;;;0.00;0.00;;;;;16.86;83.97;99889.72;5057050;28;46460;-58
2022/10/15 05:16:08;;;;;;;;;1.67;1.00;;;;;16.85;83.48;99883.56;5038866;28;45432;-57
2022/10/15 05:18:33;;;;;;;;;0.67;0.67;;;;;16.90;83.94;99889.41;5057024;28;45445;-56
2022/10/15 05:21:02;;;;;;;;;0.67;0.67;;;;;16.89;83.39;99886.84;5057069;28;45491;-57
2022/10/15 05:23:27;;;;;;;;;1.00;1.00;;;;;16.91;83.55;99892.91;5074751;28;46212;-58
2022/10/15 05:25:52;;;;;;;;;4.33;3.00;;;;;16.92;83.49;99894.56;5062113;28;45490;-59
2022/10/15 05:28:18;;;;;;;;;7.33;5.00;;;;;16.92;83.52;99890.09;5038802;28;45418;-58
2022/10/15 05:30:43;;;;;;;;;13.00;11.00;;;;;16.94;83.52;99890.84;5056896;28;45511;-58
2022/10/15 05:33:09;;;;;;;;;14.00;14.00;;;;;16.95;83.64;99892.56;5059179;28;45452;-60
2022/10/15 05:35:34;;;;;;;;;13.33;13.33;;;;;16.84;83.50;99873.88;5076626;28;57404;-57
2022/10/15 05:37:59;;;;;;;;;7.67;7.67;;;;;16.97;83.58;99895.09;5076853;28;45619;-55
2022/10/15 05:40:25;;;;;;;;;6.67;5.33;;;;;16.95;83.74;99894.34;5070675;28;45395;-58
2022/10/15 05:42:52;;;;;;;;;3.00;3.00;;;;;16.95;83.98;99889.91;5056402;28;45387;-59
2022/10/15 05:45:17;;;;;;;;;2.67;2.67;;;;;16.94;83.41;99885.53;5056674;28;45447;-58
2022/10/15 05:47:43;;;;;;;;;1.00;1.00;;;;;16.98;83.67;99891.50;5056454;28;45410;-58
2022/10/15 05:50:08;;;;;;;;;1.00;1.00;;;;;16.98;83.72;99892.34;5055445;28;45672;-57
2022/10/15 05:52:33;;;;;;;;;0.50;0.50;;;;;16.98;83.79;99886.19;5056252;28;46221;-58
2022/10/15 05:54:59;;;;;;;;;0.50;0.50;;;;;16.98;83.82;99887.03;5054843;28;45404;-57
2022/10/15 05:57:24;;;;;;;;;0.75;0.75;;;;;16.98;84.10;99879.06;5056132;28;46817;-57
2022/10/15 05:59:49;;;;;;;;;1.00;1.00;;;;;17.02;83.71;99869.03;5056777;28;48974;-57
2022/10/15 06:02:15;;;;;;;;;1.00;1.00;;;;;17.03;83.80;99873.38;5056045;28;54262;-57
2022/10/15 06:04:41;;;;;;;;;1.00;1.00;;;;;17.04;83.42;99869.78;5038032;28;45385;-58
2022/10/15 06:07:07;;;;;;;;;1.67;1.00;;;;;17.04;83.91;99882.22;5038370;28;45476;-57
2022/10/15 06:09:32;;;;;;;;;2.00;0.00;;;;;17.03;83.57;99878.69;5054713;28;45317;-57
2022/10/15 06:11:57;;;;;;;;;0.00;0.00;;;;;17.05;83.54;99884.75;5068128;28;45419;-57
2022/10/15 06:14:23;;;;;;;;;1.00;1.00;;;;;17.02;83.58;99881.47;5076444;28;45503;-57
2022/10/15 06:16:49;;;;;;;;;0.67;0.67;;;;;17.05;83.63;99886.56;5076366;28;45382;-58
2022/10/15 06:19:15;;;;;;;;;0.00;0.00;;;;;17.02;83.91;99887.63;5076406;28;45549;-57
2022/10/15 06:21:40;;;;;;;;;0.33;0.33;;;;;17.01;84.18;99883.28;5075861;28;45965;-58
2022/10/15 06:24:05;;;;;;;;;0.75;0.75;;;;;17.02;84.01;99886.78;5076097;28;46039;-58
2022/10/15 06:26:31;;;;;;;;;0.00;0.00;;;;;17.00;84.32;99890.38;5056457;28;45369;-57
2022/10/15 06:28:58;;;;;;;;;0.00;0.00;;;;;17.02;83.80;99890.28;5056045;28;45385;-58
2022/10/15 06:31:23;;;;;;;;;1.00;1.00;;;;;17.04;84.00;99887.53;5055784;28;45485;-58
2022/10/15 06:33:48;;;;;;;;;0.67;0.00;;;;;17.06;84.03;99881.16;5055462;28;45503;-57
2022/10/15 06:36:14;;;;;;;;;1.00;1.00;;;;;17.04;83.91;99891.03;5055278;28;56416;-58
2022/10/15 06:38:39;;;;;;;;;0.00;0.00;;;;;17.06;83.81;99893.56;5055886;28;45481;-58
2022/10/15 06:41:08;;;;;;;;;1.25;1.00;;;;;17.04;84.00;99891.03;5071512;28;45402;-57
2022/10/15 06:43:33;;;;;;;;;0.75;0.75;;;;;17.08;83.39;99891.66;5075619;28;45466;-58
2022/10/15 06:45:59;;;;;;;;;1.00;1.00;;;;;17.07;84.07;99896.13;5075006;28;45468;-58
2022/10/15 06:48:25;;;;;;;;;2.00;0.00;;;;;17.06;84.05;99901.53;5075934;28;45408;-57
2022/10/15 06:50:50;;;;;;;;;0.00;0.00;;;;;17.06;83.77;99907.72;5075905;28;46252;-57
2022/10/15 06:53:16;;;;;;;;;0.00;0.00;;;;;17.02;84.37;99897.41;5057286;28;45494;-58
2022/10/15 06:55:41;;;;;;;;;0.00;0.00;;;;;17.03;84.09;99897.28;5058404;28;45379;-58
2022/10/15 06:58:07;;;;;;;;;0.00;0.00;;;;;17.03;84.70;99905.25;5055237;28;45429;-58
2022/10/15 07:00:33;;;;;;;;;1.00;0.00;;;;;17.01;85.01;99901.88;5055880;28;46129;-57
2022/10/15 07:03:06;;;;;;;;;2.67;1.00;;;;;17.03;84.41;99899.94;5055364;28;45518;-57
2022/10/15 07:05:31;;;;;;;;;0.00;0.00;;;;;17.05;84.25;99902.50;5055582;28;45769;-59
2022/10/15 07:07:58;;;;;;;;;1.00;1.00;;;;;17.06;84.39;99894.44;5055350;28;45536;-58
2022/10/15 07:10:25;;;;;;;;;1.00;0.00;;;;;17.09;84.41;99898.69;5061222;28;45517;-58
2022/10/15 07:12:51;;;;;;;;;0.00;0.00;;;;;17.08;84.29;99908.44;5075812;28;45454;-58
2022/10/15 07:15:17;;;;;;;;;0.25;0.00;;;;;17.09;84.58;99909.31;5075736;28;45660;-58
2022/10/15 07:17:51;;;;;;;;;1.00;1.00;;;;;17.10;84.00;99916.31;5075575;28;45430;-58
2022/10/15 07:20:17;;;;;;;;;0.00;0.00;;;;;17.09;84.57;99911.97;5075511;28;46155;-58
2022/10/15 07:22:43;;;;;;;;;2.00;1.00;;;;;17.13;84.17;99919.56;5075450;28;45497;-58
2022/10/15 07:25:09;;;;;;;;;0.00;0.00;;;;;17.13;84.52;99921.38;5058754;28;45420;-58
2022/10/15 07:27:35;;;;;;;;;0.00;0.00;;;;;17.13;84.57;99914.25;5055368;28;45630;-57
2022/10/15 07:30:01;;;;;;;;;1.25;1.25;;;;;17.14;84.31;99920.41;5056552;28;46085;-58
2022/10/15 07:32:26;;;;;;;;;0.00;0.00;;;;;17.16;84.66;99921.16;5058532;28;45470;-57
2022/10/15 07:34:51;;;;;;;;;1.00;1.00;;;;;17.17;84.06;99933.50;5058587;28;45369;-58
2022/10/15 07:37:17;;;;;;;;;1.00;1.00;;;;;17.16;85.00;99929.13;5058370;28;47686;-58
2022/10/15 07:39:42;;;;;;;;;3.33;3.33;;;;;17.16;85.00;99932.63;5070975;28;45472;-59
2022/10/15 07:42:07;;;;;;;;;0.00;0.00;;;;;17.20;84.65;99925.28;5078803;28;45413;-57
2022/10/15 07:44:33;;;;;;;;;0.00;0.00;;;;;17.19;84.95;99929.78;5078450;28;48126;-58
2022/10/15 07:46:58;;;;;;;;;0.25;0.25;;;;;17.21;84.98;99926.97;5078816;28;46622;-58
2022/10/15 07:49:23;;;;;;;;;0.00;0.00;;;;;17.26;84.85;99945.25;5077231;28;55481;-58
2022/10/15 07:51:49;;;;;;;;;0.00;0.00;;;;;17.26;85.22;99955.88;5078546;28;45449;-56
2022/10/15 07:54:14;;;;;;;;;0.00;0.00;;;;;17.20;85.57;99943.91;5064633;28;45500;-58
2022/10/15 07:56:39;;;;;;;;;0.00;0.00;;;;;17.24;85.26;99955.97;5058254;28;45391;-58
2022/10/15 07:59:07;;;;;;;;;0.00;0.00;;;;;17.23;84.85;99948.97;5057989;28;46361;-57
2022/10/15 08:01:32;;;;;;;;;0.00;0.00;;;;;17.29;84.93;99958.31;5058653;28;45517;-58
2022/10/15 08:03:57;;;;;;;;;0.00;0.00;;;;;17.29;84.97;99967.13;5058381;28;45732;-58
2022/10/15 08:06:23;;;;;;;;;0.00;0.00;;;;;17.28;85.15;99962.78;5058131;28;45560;-58
2022/10/15 08:08:48;;;;;;;;;0.00;0.00;;;;;17.32;85.07;99966.06;5064227;28;46289;-55
2022/10/15 08:11:15;;;;;;;;;0.00;0.00;;;;;17.31;85.18;99973.19;5078273;28;45424;-58
2022/10/15 08:13:42;;;;;;;;;0.00;0.00;;;;;17.33;84.85;99965.97;5078386;28;45394;-56
2022/10/15 08:16:09;;;;;;;;;0.00;0.00;;;;;17.34;84.47;99972.97;5078280;28;45317;-57
2022/10/15 08:18:35;;;;;;;;;0.00;0.00;;;;;17.37;84.37;99970.06;5059579;28;45794;-56
2022/10/15 08:21:01;;;;;;;;;0.00;0.00;;;;;17.39;84.31;99964.66;5077745;28;45541;-57
2022/10/15 08:23:26;;;;;;;;;0.25;0.25;;;;;17.43;83.98;99969.59;5068081;28;45478;-54
2022/10/15 08:25:52;;;;;;;;;0.00;0.00;;;;;17.48;84.07;99973.75;5051454;28;45505;-60
2022/10/15 08:28:17;;;;;;;;;0.00;0.00;;;;;17.47;83.51;99958.78;5055340;28;45491;-61
2022/10/15 08:30:43;;;;;;;;;0.00;0.00;;;;;17.52;83.14;99976.06;5057471;28;45522;-60
2022/10/15 08:33:08;;;;;;;;;2.00;0.50;;;;;17.52;83.03;99973.41;5057668;28;45358;-60
2022/10/15 08:35:35;;;;;;;;;0.00;0.00;;;;;17.49;82.77;99971.00;5057307;28;46450;-59
2022/10/15 08:38:01;;;;;;;;;0.00;0.00;;;;;17.48;82.84;99974.59;5032545;28;45622;-62
2022/10/15 08:40:28;;;;;;;;;0.00;0.00;;;;;17.50;82.51;99978.00;5062426;28;45474;-57
2022/10/15 08:42:54;;;;;;;;;0.00;0.00;;;;;17.52;82.31;99989.38;5077036;28;45438;-61
2022/10/15 08:45:34;;;;;;;;;1.00;0.00;;;;;17.49;82.35;99980.75;5077384;28;45600;-60
2022/10/15 08:48:11;;;;;;;;;0.00;0.00;;;;;17.54;82.07;99998.06;5077149;28;45447;-58
2022/10/15 08:50:53;;;;;;;;;0.00;0.00;;;;;17.52;82.18;99996.50;5076274;28;45395;-58
2022/10/15 08:53:21;;;;;;;;;0.00;0.00;;;;;17.57;82.44;99994.31;5072196;28;45479;-58
2022/10/15 08:55:50;;;;;;;;;0.00;0.00;;;;;17.60;81.89;99997.63;5057020;28;45378;-59
2022/10/15 08:58:18;;;;;;;;;0.00;0.00;;;;;17.63;81.88;100004.53;5056695;28;46248;-58
2022/10/15 09:00:53;;;;;;;;;0.00;0.00;;;;;17.63;82.05;99993.88;5057947;28;45503;-59
2022/10/15 09:03:42;;;;;;;;;1.75;0.75;;;;;17.64;81.66;99995.56;5057119;28;45455;-59
2022/10/15 09:06:20;;;;;;;;;0.00;0.00;;;;;17.70;81.28;99999.59;5040363;28;45479;-59
2022/10/15 09:09:04;;;;;;;;;0.00;0.00;;;;;17.70;80.94;100004.91;5057992;28;45524;-57
2022/10/15 09:11:49;;;;;;;;;0.00;0.00;;;;;17.73;80.90;100012.66;5077118;28;45459;-58
2022/10/15 09:14:23;;;;;;;;;1.00;1.00;;;;;17.76;80.79;100007.09;5077428;28;45442;-60
2022/10/15 09:16:49;;;;;;;;;3.25;3.25;;;;;17.83;80.70;100021.69;5077128;28;45435;-61
2022/10/15 09:19:23;;;;;;;;;0.00;0.00;;;;;17.84;80.70;100002.97;5076539;28;45596;-59
2022/10/15 09:21:50;;;;;;;;;1.00;1.00;;;;;17.86;80.87;100019.63;5074519;28;45438;-60
2022/10/15 09:24:21;;;;;;;;;0.00;0.00;;;;;17.88;80.30;100025.69;5058456;28;45462;-59
2022/10/15 09:27:07;;;;;;;;;0.00;0.00;;;;;17.90;80.25;100030.91;5055892;28;45528;-60
2022/10/15 09:29:46;;;;;;;;;4.75;3.00;;;;;17.91;80.06;100029.94;5056508;28;45464;-59
2022/10/15 09:32:31;;;;;;;;;1.00;1.00;;;;;17.96;79.79;100033.09;5056594;28;45417;-59
2022/10/15 09:35:18;;;;;;;;;1.00;1.00;;;;;17.94;79.66;100034.19;5056722;28;45341;-60
2022/10/15 09:38:16;;;;;;;;;2.00;1.00;;;;;17.93;79.40;100035.16;5061295;28;45434;-59
2022/10/15 09:41:06;;;;;;;;;0.00;0.00;;;;;17.97;78.98;100039.25;5076719;28;45486;-61
2022/10/15 09:43:36;;;;;;;;;1.50;0.00;;;;;18.03;79.17;100033.50;5076296;28;45395;-59
2022/10/15 09:46:03;;;;;;;;;0.00;0.00;;;;;18.10;78.67;100043.53;5076722;28;45528;-59
2022/10/15 09:48:39;;;;;;;;;0.75;0.75;;;;;18.12;77.25;100037.28;5065711;28;45526;-60
2022/10/15 09:51:29;;;;;;;;;0.50;0.50;;;;;18.17;77.23;100049.25;5056103;28;46087;-60
2022/10/15 09:53:54;;;;;;;;;0.25;0.00;;;;;18.23;77.18;100040.81;5055967;28;45426;-61
2022/10/15 09:56:39;;;;;;;;;0.00;0.00;;;;;18.36;77.16;100046.03;5056617;28;45478;-59
2022/10/15 09:59:04;;;;;;;;;0.25;0.25;;;;;18.51;75.91;100066.19;5056242;28;45442;-62
2022/10/15 10:01:32;;;;;;;;;0.00;0.00;;;;;18.55;75.54;100072.09;5056894;28;45504;-62
2022/10/15 10:04:16;;;;;;;;;0.00;0.00;;;;;18.54;75.85;100081.06;5049926;28;45528;-59
2022/10/15 10:06:49;;;;;;;;;0.00;0.00;;;;;18.52;75.47;100091.00;5070357;28;45426;-59
2022/10/15 10:09:19;;;;;;;;;1.00;1.00;;;;;18.50;75.01;100084.94;5076576;28;45390;-60
2022/10/15 10:11:53;;;;;;;;;0.00;0.00;;;;;18.54;75.86;100094.38;5063048;28;45486;-59
2022/10/15 10:14:31;;;;;;;;;0.00;0.00;;;;;18.56;75.61;100087.09;5043143;28;45486;-62
2022/10/15 10:17:27;;;;;;;;;0.00;0.00;;;;;18.54;73.96;100087.25;5051546;28;45640;-60
2022/10/15 10:20:07;;;;;;;;;0.50;0.50;;;;;18.55;73.97;100093.41;5038620;28;45426;-61
2022/10/15 10:22:47;;;;;;;;;1.00;1.00;;;;;18.54;73.11;100092.56;5055716;28;46616;-61
2022/10/15 10:25:25;;;;;;;;;0.25;0.00;;;;;18.63;73.48;100095.50;5037627;28;45476;-60
2022/10/15 10:27:52;;;;;;;;;0.00;0.00;;;;;18.67;73.40;100091.59;5055951;28;45419;-61
2022/10/15 10:30:17;;;;;;;;;0.00;0.00;;;;;18.69;73.54;100092.34;5049702;28;45596;-60
2022/10/15 10:32:44;;;;;;;;;0.00;0.00;;;;;18.73;73.95;100088.50;5075867;28;45445;-61
2022/10/15 10:35:21;;;;;;;;;0.00;0.00;;;;;18.75;73.48;100098.09;5076137;28;45535;-61
2022/10/15 10:37:47;;;;;;;;;0.00;0.00;;;;;18.73;73.50;100088.50;5076274;28;45418;-62
2022/10/15 10:40:22;;;;;;;;;0.00;0.00;;;;;18.80;72.76;100099.53;5076354;28;45444;-68
2022/10/15 10:42:47;;;;;;;;;0.00;0.00;;;;;18.81;73.12;100104.75;5076132;28;45442;-67
2022/10/15 10:45:20;;;;;;;;;0.00;0.00;;;;;18.81;71.30;100111.91;5058362;28;45534;-67
2022/10/15 10:47:46;;;;;;;;;0.00;0.00;;;;;18.82;71.45;100092.28;5055819;28;45426;-68
2022/10/15 10:50:28;;;;;;;;;0.50;0.00;;;;;18.81;70.99;100099.44;5055869;28;45363;-68
2022/10/15 10:52:55;;;;;;;;;0.00;0.00;;;;;18.85;70.22;100100.88;5055605;28;45841;-67
2022/10/15 10:55:24;;;;;;;;;0.00;0.00;;;;;18.84;70.04;100093.88;5037547;28;45430;-67
2022/10/15 10:57:54;;;;;;;;;0.00;0.00;;;;;18.89;69.98;100101.50;5055682;28;45360;-66
2022/10/15 11:00:19;;;;;;;;;0.00;0.00;;;;;18.94;69.82;100099.31;5056336;28;45478;-65
2022/10/15 11:02:44;;;;;;;;;0.25;0.25;;;;;18.96;69.58;100121.34;5076094;28;46428;-64
2022/10/15 11:05:11;;;;;;;;;0.00;0.00;;;;;18.91;70.01;100120.88;5077414;28;45421;-63
2022/10/15 11:07:59;;;;;;;;;0.00;0.00;;;;;18.85;70.53;100127.53;5074667;28;45434;-68
2022/10/15 11:10:32;;;;;;;;;0.50;0.50;;;;;18.79;70.50;100124.50;5038640;28;45491;-68
2022/10/15 11:13:19;;;;;;;;;1.50;1.50;;;;;18.73;71.44;100129.28;5044219;28;45401;-69
2022/10/15 11:16:02;;;;;;;;;0.00;0.00;;;;;18.66;70.85;100122.72;5064513;28;45434;-71
2022/10/15 11:18:42;;;;;;;;;0.00;0.00;;;;;18.66;71.25;100133.38;5063944;28;45365;-72
2022/10/15 11:21:37;;;;;;;;;0.25;0.25;;;;;18.62;72.03;100117.75;5073775;28;45398;-71
2022/10/15 11:24:33;;;;;;;;;0.00;0.00;;;;;18.59;72.88;100141.97;5069706;28;45538;-73
2022/10/15 11:26:58;;;;;;;;;0.00;0.00;;;;;18.60;72.44;100149.00;5075152;28;45466;-70
2022/10/15 11:29:24;;;;;;;;;0.00;0.00;;;;;18.58;72.46;100137.59;5058767;28;45363;-71
2022/10/15 11:32:25;;;;;;;;;1.25;0.00;;;;;18.63;71.90;100120.31;5073338;28;45635;-72
2022/10/15 11:35:21;;;;;;;;;0.00;0.00;;;;;18.65;69.83;100130.84;5067589;28;46606;-70
2022/10/15 11:38:08;;;;;;;;;0.00;0.00;;;;;18.64;68.63;100132.66;5071596;28;45534;-69
2022/10/15 11:41:06;;;;;;;;;0.00;0.00;;;;;18.62;68.46;100131.94;5051086;28;45446;-69
2022/10/15 11:43:50;;;;;;;;;0.00;0.00;;;;;18.60;65.66;100120.53;5061077;28;45497;-67